createdAt,value
2019-02-14T00:04:16.289Z,9.40
2019-02-14T00:09:09.165Z,8.93
2019-02-14T00:14:02.052Z,9.53
2019-02-14T00:18:54.962Z,9.83
2019-02-14T00:23:47.812Z,9.10
2019-02-14T00:28:40.679Z,9.13
2019-02-14T00:33:33.601Z,9.17
2019-02-14T00:38:26.542Z,9.30
2019-02-14T00:43:19.442Z,8.50
2019-02-14T00:48:12.383Z,8.93
2019-02-14T00:53:05.225Z,8.47
2019-02-14T00:57:58.121Z,8.87
2019-02-14T01:02:51.013Z,8.63
2019-02-14T01:07:43.876Z,9.53
2019-02-14T01:12:36.748Z,9.67
2019-02-14T01:17:29.624Z,8.93
2019-02-14T01:22:22.505Z,9.37
2019-02-14T01:27:15.480Z,9.03
2019-02-14T01:32:08.348Z,8.90
2019-02-14T01:37:01.186Z,8.90
2019-02-14T01:41:57.127Z,9.10
2019-02-14T01:46:49.999Z,8.10
2019-02-14T01:51:42.858Z,8.80
2019-02-14T01:56:35.739Z,8.00
2019-02-14T02:01:28.762Z,7.90
2019-02-14T02:06:21.681Z,7.80
2019-02-14T02:11:14.664Z,8.33
2019-02-14T02:16:07.517Z,8.00
2019-02-14T02:21:00.387Z,8.27
2019-02-14T02:25:53.299Z,9.30
2019-02-14T02:30:46.276Z,8.80
2019-02-14T02:35:39.162Z,9.63
2019-02-14T02:40:34.170Z,9.67
2019-02-14T02:45:27.074Z,9.03
2019-02-14T02:50:19.963Z,9.20
2019-02-14T02:55:12.852Z,9.07
2019-02-14T03:00:11.813Z,9.17
2019-02-14T03:05:06.294Z,8.83
2019-02-14T03:09:59.154Z,8.83
2019-02-14T03:14:52.040Z,8.30
2019-02-14T03:19:44.871Z,8.43
2019-02-14T03:24:37.741Z,7.83
2019-02-14T03:29:30.621Z,7.87
2019-02-14T03:34:23.613Z,8.63
2019-02-14T03:39:16.488Z,8.60
2019-02-14T03:44:09.345Z,8.63
2019-02-14T03:49:02.229Z,7.77
2019-02-14T03:53:55.086Z,9.00
2019-02-14T03:58:47.966Z,9.03
2019-02-14T04:03:40.812Z,8.93
2019-02-14T04:08:33.781Z,9.00
2019-02-14T04:13:26.615Z,8.90
2019-02-14T04:18:20.997Z,9.50
2019-02-14T04:23:13.889Z,9.37
2019-02-14T04:28:06.758Z,9.33
2019-02-14T04:32:59.599Z,9.10
2019-02-14T04:37:52.475Z,8.97
2019-02-14T04:42:45.325Z,9.27
2019-02-14T04:47:38.210Z,9.00
2019-02-14T04:52:31.083Z,8.53
2019-02-14T04:57:24.156Z,9.20
2019-02-14T05:02:17.018Z,8.87
2019-02-14T05:07:09.975Z,8.23
2019-02-14T05:12:02.855Z,8.27
2019-02-14T05:16:55.704Z,8.17
2019-02-14T05:21:48.565Z,8.40
2019-02-14T05:26:41.432Z,9.03
2019-02-14T05:31:34.331Z,9.07
2019-02-14T05:36:27.170Z,8.77
2019-02-14T05:41:20.047Z,8.43
2019-02-14T05:46:12.909Z,8.63
2019-02-14T05:51:05.794Z,8.83
2019-02-14T05:55:58.677Z,9.20
2019-02-14T06:00:51.539Z,8.73
2019-02-14T06:05:44.403Z,9.13
2019-02-14T06:10:37.315Z,8.63
2019-02-14T06:15:30.170Z,8.93
2019-02-14T06:20:23.030Z,8.10
2019-02-14T06:25:15.896Z,8.23
2019-02-14T06:30:11.350Z,8.37
2019-02-14T06:35:05.223Z,7.60
2019-02-14T06:39:59.889Z,9.03
2019-02-14T06:44:52.746Z,8.80
2019-02-14T06:49:45.659Z,9.50
2019-02-14T06:54:38.522Z,8.63
2019-02-14T06:59:31.381Z,8.07
2019-02-14T07:04:24.241Z,8.93
2019-02-14T07:09:17.221Z,9.27
2019-02-14T07:14:10.067Z,8.40
2019-02-14T07:19:02.912Z,8.60
2019-02-14T07:23:55.766Z,8.53
2019-02-14T07:28:48.716Z,8.60
2019-02-14T07:33:41.603Z,8.67
2019-02-14T07:38:34.453Z,8.97
2019-02-14T07:43:27.361Z,9.40
2019-02-14T07:48:20.186Z,8.93
2019-02-14T07:53:13.071Z,8.57
2019-02-14T07:58:05.931Z,8.27
2019-02-14T08:02:58.806Z,8.13
2019-02-14T08:07:54.631Z,8.60
2019-02-14T08:12:47.495Z,7.73
2019-02-14T08:17:40.377Z,7.60
2019-02-14T08:22:33.259Z,7.77
2019-02-14T08:27:26.171Z,8.10
2019-02-14T08:32:19.043Z,7.70
2019-02-14T08:37:11.911Z,7.57
2019-02-14T08:42:04.836Z,8.20
2019-02-14T08:46:57.746Z,8.73
2019-02-14T08:51:50.609Z,8.43
2019-02-14T08:56:43.465Z,8.80
2019-02-14T09:01:36.349Z,7.63
2019-02-14T09:06:29.231Z,7.93
2019-02-14T09:11:22.071Z,8.00
2019-02-14T09:16:14.947Z,7.90
2019-02-14T09:21:08.894Z,7.83
2019-02-14T09:26:02.437Z,7.90
2019-02-14T09:30:55.543Z,7.13
2019-02-14T09:35:48.421Z,7.00
2019-02-14T09:40:41.302Z,7.90
2019-02-14T09:45:34.181Z,7.57
2019-02-14T09:50:27.124Z,6.40
2019-02-14T09:55:19.971Z,7.13
2019-02-14T10:00:14.877Z,7.77
2019-02-14T10:05:08.969Z,6.90
2019-02-14T10:10:01.946Z,7.03
2019-02-14T10:14:54.804Z,6.30
2019-02-14T10:19:47.801Z,7.03
2019-02-14T10:24:40.661Z,6.67
2019-02-14T10:29:33.548Z,6.47
2019-02-14T10:34:26.417Z,6.70
2019-02-14T10:39:19.315Z,6.83
2019-02-14T10:44:12.267Z,6.60
2019-02-14T10:49:05.162Z,6.30
2019-02-14T10:53:58.294Z,6.40
2019-02-14T10:58:51.194Z,6.60
2019-02-14T11:03:44.159Z,6.87
2019-02-14T11:08:37.838Z,6.17
2019-02-14T11:13:30.963Z,6.87
2019-02-14T11:18:23.858Z,6.53
2019-02-14T11:23:16.755Z,6.60
2019-02-14T11:28:09.608Z,6.57
2019-02-14T11:33:02.498Z,5.80
2019-02-14T11:37:55.348Z,5.40
2019-02-14T11:42:48.278Z,5.97
2019-02-14T11:47:41.375Z,5.60
2019-02-14T11:52:34.232Z,5.63
2019-02-14T11:57:27.090Z,5.43
2019-02-14T12:02:19.953Z,5.17
2019-02-14T12:07:12.980Z,6.20
2019-02-14T12:12:05.872Z,5.07
2019-02-14T12:16:58.850Z,4.70
2019-02-14T12:21:51.750Z,5.27
2019-02-14T12:26:44.626Z,4.80
2019-02-14T12:31:37.508Z,5.03
2019-02-14T12:36:30.382Z,5.13
2019-02-14T12:41:23.319Z,5.33
2019-02-14T12:46:16.410Z,4.93
2019-02-14T12:51:09.291Z,5.23
2019-02-14T12:56:02.441Z,4.77
2019-02-14T13:00:55.295Z,4.10
2019-02-14T13:05:48.186Z,4.43
2019-02-14T13:10:41.932Z,3.87
2019-02-14T13:15:35.014Z,3.90
2019-02-14T13:20:27.914Z,3.50
2019-02-14T13:25:20.845Z,3.53
2019-02-14T13:30:17.513Z,3.37
2019-02-14T13:35:10.584Z,4.60
2019-02-14T13:40:03.896Z,4.50
2019-02-14T13:45:01.235Z,4.90
2019-02-14T13:49:57.486Z,5.07
2019-02-14T13:54:55.541Z,4.53
2019-02-14T13:59:53.285Z,4.53
2019-02-14T14:04:51.014Z,4.87
2019-02-14T14:09:46.831Z,4.27
2019-02-14T14:14:44.226Z,4.53
2019-02-14T14:19:41.342Z,4.43
2019-02-14T14:24:37.525Z,4.03
2019-02-14T14:29:33.824Z,4.60
2019-02-14T14:34:29.498Z,4.03
2019-02-14T14:39:24.689Z,4.07
2019-02-14T14:44:38.423Z,4.10
2019-02-14T14:49:31.279Z,4.10
2019-02-14T14:54:24.230Z,3.53
2019-02-14T14:59:17.257Z,3.57
2019-02-14T15:04:10.113Z,4.03
2019-02-14T15:09:04.216Z,3.10
2019-02-14T15:13:57.172Z,2.87
2019-02-14T15:18:50.031Z,2.60
2019-02-14T15:23:42.910Z,2.60
2019-02-14T15:28:37.479Z,3.30
2019-02-14T15:33:30.559Z,2.70
2019-02-14T15:38:23.562Z,2.57
2019-02-14T15:43:16.422Z,2.70
2019-02-14T15:48:09.376Z,2.90
2019-02-14T15:53:02.228Z,2.47
2019-02-14T15:57:55.155Z,2.50
2019-02-14T16:02:50.271Z,2.30
2019-02-14T16:07:42.805Z,2.40
2019-02-14T16:12:35.655Z,2.43
2019-02-14T16:17:29.636Z,2.20
2019-02-14T16:22:29.831Z,2.37
2019-02-14T16:27:17.255Z,2.50
2019-02-14T16:32:10.100Z,2.47
2019-02-14T16:37:03.980Z,1.93
2019-02-14T16:41:56.868Z,2.50
2019-02-14T16:46:51.912Z,2.50
2019-02-14T16:51:44.776Z,2.30
2019-02-14T16:56:37.734Z,2.13
2019-02-14T17:01:30.587Z,2.60
2019-02-14T17:06:25.367Z,2.77
2019-02-14T17:11:18.239Z,2.80
2019-02-14T17:16:11.138Z,3.17
2019-02-14T17:21:03.999Z,2.87
2019-02-14T17:25:56.973Z,3.60
2019-02-14T17:30:53.934Z,5.07
2019-02-14T17:35:46.918Z,5.17
2019-02-14T17:40:45.872Z,5.17
2019-02-14T17:45:34.642Z,4.70
2019-02-14T17:50:27.545Z,4.13
2019-02-14T17:55:20.384Z,3.63
2019-02-14T18:00:13.645Z,3.00
2019-02-14T18:05:07.657Z,2.80
2019-02-14T18:10:00.595Z,2.90
2019-02-14T18:14:55.263Z,2.80
2019-02-14T18:19:48.112Z,3.00
2019-02-14T18:24:41.140Z,3.00
2019-02-14T18:29:34.002Z,3.00
2019-02-14T18:34:26.903Z,3.40
2019-02-14T18:39:22.336Z,3.27
2019-02-14T18:44:15.215Z,3.10
2019-02-14T18:49:08.057Z,3.23
2019-02-14T18:54:01.027Z,3.20
2019-02-14T18:58:53.885Z,3.00
2019-02-14T19:03:46.797Z,3.30
2019-02-14T19:08:39.717Z,3.73
2019-02-14T19:13:32.661Z,3.30
2019-02-14T19:18:25.544Z,3.10
2019-02-14T19:23:24.163Z,3.40
2019-02-14T19:28:13.310Z,3.27
2019-02-14T19:33:06.245Z,3.30
2019-02-14T19:37:59.101Z,3.90
2019-02-14T19:42:52.097Z,3.67
2019-02-14T19:47:44.996Z,3.93
2019-02-14T19:52:38.967Z,4.07
2019-02-14T19:57:31.821Z,4.40
2019-02-14T20:02:24.698Z,4.63
2019-02-14T20:07:17.782Z,4.57
2019-02-14T20:12:10.723Z,4.40
2019-02-14T20:17:03.912Z,4.83
2019-02-14T20:21:56.785Z,4.47
2019-02-14T20:26:49.679Z,4.90
2019-02-14T20:31:42.579Z,4.80
2019-02-14T20:36:35.445Z,4.80
2019-02-14T20:41:28.340Z,4.70
2019-02-14T20:46:21.327Z,4.10
2019-02-14T20:51:14.242Z,5.23
2019-02-14T20:56:07.828Z,4.43
2019-02-14T21:01:02.654Z,4.47
2019-02-14T21:05:55.507Z,4.63
2019-02-14T21:10:48.397Z,4.47
2019-02-14T21:15:41.281Z,5.00
2019-02-14T21:20:34.161Z,4.43
2019-02-14T21:30:26.226Z,4.80
2019-02-14T21:35:19.113Z,4.13
2019-02-14T21:40:12.488Z,4.70
2019-02-14T21:45:07.436Z,4.77
2019-02-14T21:50:00.725Z,4.57
2019-02-14T21:54:53.747Z,5.13
2019-02-14T21:59:46.642Z,4.73
2019-02-14T22:04:39.495Z,5.10
2019-02-14T22:09:32.396Z,4.77
2019-02-14T22:14:25.233Z,4.50
2019-02-14T22:19:18.106Z,4.77
2019-02-14T22:24:12.539Z,4.47
2019-02-14T22:29:05.687Z,4.80
2019-02-14T22:33:58.560Z,4.97
2019-02-14T22:38:51.407Z,5.40
2019-02-14T22:43:44.325Z,5.30
2019-02-14T22:48:37.191Z,5.60
2019-02-14T22:53:30.058Z,5.40
2019-02-14T22:58:22.955Z,4.90
2019-02-14T23:03:16.671Z,4.93
2019-02-14T23:08:09.553Z,5.23
2019-02-14T23:13:02.477Z,5.77
2019-02-14T23:17:55.346Z,5.33
2019-02-14T23:22:48.190Z,5.40
2019-02-14T23:27:41.376Z,5.53
2019-02-14T23:32:34.475Z,5.30
2019-02-14T23:37:27.335Z,6.17
2019-02-14T23:42:20.210Z,5.47
2019-02-14T23:47:13.055Z,4.90
2019-02-14T23:52:05.921Z,5.40
2019-02-14T23:56:58.783Z,5.60
